Nao Victoria — ECHH — position and weather

sailwx.info

Track history (hours):
 
Tides and Currents Weather Stations Pressure Air Temp Water Temp Dewpoint Dewpoint Depression Visibility Wind Speed Wind Dir Waves Ship Positions

Nao Victoria

Last reported at 2017-Oct-10 19:18 UTC. Time now 2017-Nov-22 20:12 UTC.
Position N 36°56' W 008°07'.
Warning: this ship's position is 43 days out of date.

Length 25 m; draft 3.2 m.

Type: Sailing vessel. MMSI: 224123770.

Date/timePositionNaut miles runAvg speedWind from/ knotsBaromVisibWave heightAir tempDewpointWater temp
2017-Oct-10 19:18N 36°56' W 008°07'2 4.7
2017-Oct-10 18:57N 36°56' W 008°09'2 5.0
2017-Oct-10 18:30N 36°57' W 008°11'3 5.0
2017-Oct-10 18:00N 36°58' W 008°15'1 1.0
2017-Oct-10 17:23N 36°58' W 008°15'2 3.5
2017-Oct-10 16:57N 36°58' W 008°17'4 5.0
2017-Oct-10 16:15N 36°58' W 008°21'1 4.9
2017-Oct-10 15:58N 36°58' W 008°23'2 4.8
2017-Oct-10 15:29N 36°58' W 008°26'3 4.8
2017-Oct-10 14:58N 36°58' W 008°29'5 4.9
2017-Oct-10 13:59N 36°59' W 008°35'3 4.7
2017-Oct-10 13:22N 36°59' W 008°39'5 4.5
2017-Oct-10 12:15N 36°60' W 008°45'2 4.3
2017-Oct-10 11:49N 36°59' W 008°47'2 4.2
2017-Oct-10 11:21N 36°59' W 008°50'2 4.2
2017-Oct-10 10:53N 36°59' W 008°52'2 4.3
2017-Oct-10 10:28N 36°59' W 008°54'2 4.5
2017-Oct-10 10:00N 36°60' W 008°57'3 5.2
2017-Oct-10 09:30N 37°01' W 008°60'3 6.2
2017-Oct-10 09:00N 37°04' W 009°01'3 5.9
2017-Oct-10 08:26N 37°07' W 009°01'3 5.7
2017-Oct-10 07:50N 37°11' W 009°01'2 5.6
2017-Oct-10 07:29N 37°13' W 009°01'8 5.4
2017-Oct-10 05:58N 37°21' W 009°00'3 5.6
2017-Oct-10 05:28N 37°24' W 009°00'3 5.5
2017-Oct-10 05:00N 37°26' W 009°00'3 5.7
2017-Oct-10 04:26N 37°29' W 009°00'4 5.5
2017-Oct-10 03:45N 37°33' W 008°60'1 5.4
2017-Oct-10 03:30N 37°34' W 008°60'3 5.7
2017-Oct-10 02:55N 37°38' W 008°59'2 5.9
2017-Oct-10 02:30N 37°40' W 008°59'3 5.4
2017-Oct-10 02:00N 37°43' W 008°59'3 5.6
2017-Oct-10 01:30N 37°46' W 008°59'3 5.8
2017-Oct-10 01:00N 37°49' W 008°59'3 5.5
2017-Oct-10 00:30N 37°51' W 008°59'3 5.5
2017-Oct-10 00:00N 37°54' W 008°59'3 5.3
2017-Oct-09 23:30N 37°57' W 008°59'2 4.9
2017-Oct-09 23:00N 37°59' W 008°58'2 4.8
2017-Oct-09 22:30N 38°02' W 008°58'2 5.0
2017-Oct-09 22:00N 38°04' W 008°59'3 5.2
2017-Oct-09 21:30N 38°07' W 008°59'3 5.2
2017-Oct-09 21:00N 38°09' W 008°59'3 5.2
2017-Oct-09 20:30N 38°12' W 008°59'3 5.4
2017-Oct-09 20:00N 38°15' W 008°58'3 5.5
2017-Oct-09 19:29N 38°17' W 008°58'3 5.7
2017-Oct-09 19:00N 38°20' W 008°59'3 5.4
2017-Oct-09 18:30N 38°23' W 008°58'3 5.6
2017-Oct-09 18:00N 38°26' W 008°58'3 5.5
2017-Oct-09 17:30N 38°28' W 008°57'2 4.5
2017-Oct-09 17:00N 38°30' W 008°55'1 3.0
2017-Oct-09 16:30N 38°31' W 008°54'  
2017-Oct-06 11:34N 38°30' W 008°55'1 8.4
2017-Oct-06 11:30N 38°29' W 008°56'4 7.5
2017-Oct-06 11:00N 38°26' W 008°59'2 3.2
2017-Oct-06 10:30N 38°25' W 008°60'1 2.8
2017-Oct-06 10:00N 38°24' W 009°00'3 5.1
2017-Oct-06 09:30N 38°22' W 009°02'1 1.7
2017-Oct-06 09:00N 38°21' W 009°03'0 0.7
2017-Oct-06 08:30N 38°21' W 009°02'0 0.5
2017-Oct-06 08:00N 38°20' W 009°02'0 0.4
2017-Oct-06 07:30N 38°20' W 009°02'0 0.3
2017-Oct-06 06:58N 38°20' W 009°02'0 0.2
2017-Oct-06 06:30N 38°20' W 009°02'0 0.1
2017-Oct-06 06:00N 38°20' W 009°02'0 0.3
2017-Oct-06 05:30N 38°20' W 009°01'0 0.3
2017-Oct-06 05:00N 38°20' W 009°01'0 0.3
2017-Oct-06 04:30N 38°21' W 009°01'0 0.2
2017-Oct-06 04:00N 38°21' W 009°01'0 0.3
2017-Oct-06 03:30N 38°21' W 009°01'0 0.3
2017-Oct-06 03:00N 38°21' W 009°01'0 0.5
2017-Oct-06 02:30N 38°21' W 009°00'0 0.3
2017-Oct-06 02:00N 38°21' W 009°00'0 0.6
2017-Oct-06 01:18N 38°20' W 009°00'0 0.6
2017-Oct-06 01:00N 38°20' W 008°60'1 0.7
2017-Oct-06 00:18N 38°20' W 008°59'0 0.4
2017-Oct-06 00:00N 38°20' W 008°59'0 0.3
2017-Oct-05 23:30N 38°20' W 008°59'0 0.1
2017-Oct-05 23:00N 38°20' W 008°59'0 0.1
2017-Oct-05 22:30N 38°20' W 008°59'0 0.1
2017-Oct-05 22:00N 38°20' W 008°59'0 0.1
2017-Oct-05 21:30N 38°20' W 008°59'0 0.3
2017-Oct-05 21:00N 38°21' W 008°59'0 0.2
2017-Oct-05 20:29N 38°21' W 008°59'0 0.4
2017-Oct-05 19:55N 38°21' W 008°59'0 0.5
2017-Oct-05 19:30N 38°21' W 008°59'1 0.6
2017-Oct-05 18:33N 38°21' W 009°00'0 2.1
2017-Oct-05 18:30N 38°21' W 009°00'1 2.3
2017-Oct-05 17:59N 38°22' W 009°01'2 2.7
2017-Oct-05 17:21N 38°23' W 009°03'1 2.4
2017-Oct-05 16:47N 38°24' W 009°04'3 2.0
2017-Oct-05 15:24N 38°25' W 009°07'0 1.0
2017-Oct-05 14:54N 38°26' W 009°08'0 0.3
2017-Oct-05 14:30N 38°26' W 009°08'1 0.4
2017-Oct-05 13:11N 38°25' W 009°08'1 1.5
2017-Oct-05 12:50N 38°26' W 009°08'0 0.1
2017-Oct-05 12:10N 38°26' W 009°07'0 0.1
2017-Oct-05 11:57N 38°26' W 009°07'0 0.3
2017-Oct-05 11:30N 38°26' W 009°08'0 0.6
2017-Oct-05 11:00N 38°25' W 009°08'0 0.1
2017-Oct-05 10:27N 38°25' W 009°08'0 0.2
2017-Oct-05 09:59N 38°25' W 009°08'0 0.0
2017-Oct-05 09:30N 38°25' W 009°08'3 4.0
2017-Oct-05 08:51N 38°24' W 009°10'2 5.0
2017-Oct-05 08:30N 38°23' W 009°12'3 5.4
2017-Oct-05 07:59N 38°25' W 009°16'3 5.2
2017-Oct-05 07:28N 38°26' W 009°18'3 5.2
2017-Oct-05 06:55N 38°28' W 009°21'2 5.1
2017-Oct-05 06:30N 38°30' W 009°23'3 5.2
2017-Oct-05 06:00N 38°32' W 009°24'3 5.3
2017-Oct-05 05:30N 38°35' W 009°26'3 5.1
2017-Oct-05 05:01N 38°37' W 009°27'3 5.1
2017-Oct-05 04:30N 38°39' W 009°29'3 5.5
2017-Oct-05 04:00N 38°41' W 009°31'3 5.0
2017-Oct-05 03:30N 38°44' W 009°32'3 5.5
2017-Oct-05 03:01N 38°46' W 009°33'3 5.6
2017-Oct-05 02:31N 38°49' W 009°33'3 5.4
2017-Oct-05 02:00N 38°52' W 009°32'3 5.4
2017-Oct-05 01:30N 38°54' W 009°32'3 5.4
2017-Oct-05 01:00N 38°57' W 009°32'3 5.3
2017-Oct-05 00:31N 38°60' W 009°32'3 5.2
2017-Oct-05 00:01N 39°02' W 009°31'3 5.4
2017-Oct-04 23:30N 39°05' W 009°30'3 5.5
2017-Oct-04 22:59N 39°08' W 009°30'  
Track history (hours):
 
Tides and Currents Weather Stations Pressure Air Temp Water Temp Dewpoint Dewpoint Depression Visibility Wind Speed Wind Dir Waves Ship Positions

Nao Victoria

Last reported at 2017-Oct-10 19:18 UTC. Time now 2017-Nov-22 20:12 UTC.
Position N 36°56' W 008°07'.
Warning: this ship's position is 43 days out of date.

Length 25 m; draft 3.2 m.

Type: Sailing vessel. MMSI: 224123770.

Date/timePositionNaut miles runAvg speedWind from/ knotsBaromVisibWave heightAir tempDewpointWater temp
2017-Oct-10 19:18N 36°56' W 008°07'2 4.7
2017-Oct-10 18:57N 36°56' W 008°09'2 5.0
2017-Oct-10 18:30N 36°57' W 008°11'3 5.0
2017-Oct-10 18:00N 36°58' W 008°15'1 1.0
2017-Oct-10 17:23N 36°58' W 008°15'2 3.5
2017-Oct-10 16:57N 36°58' W 008°17'4 5.0
2017-Oct-10 16:15N 36°58' W 008°21'1 4.9
2017-Oct-10 15:58N 36°58' W 008°23'2 4.8
2017-Oct-10 15:29N 36°58' W 008°26'3 4.8
2017-Oct-10 14:58N 36°58' W 008°29'5 4.9
2017-Oct-10 13:59N 36°59' W 008°35'3 4.7
2017-Oct-10 13:22N 36°59' W 008°39'5 4.5
2017-Oct-10 12:15N 36°60' W 008°45'2 4.3
2017-Oct-10 11:49N 36°59' W 008°47'2 4.2
2017-Oct-10 11:21N 36°59' W 008°50'2 4.2
2017-Oct-10 10:53N 36°59' W 008°52'2 4.3
2017-Oct-10 10:28N 36°59' W 008°54'2 4.5
2017-Oct-10 10:00N 36°60' W 008°57'3 5.2
2017-Oct-10 09:30N 37°01' W 008°60'3 6.2
2017-Oct-10 09:00N 37°04' W 009°01'3 5.9
2017-Oct-10 08:26N 37°07' W 009°01'3 5.7
2017-Oct-10 07:50N 37°11' W 009°01'2 5.6
2017-Oct-10 07:29N 37°13' W 009°01'8 5.4
2017-Oct-10 05:58N 37°21' W 009°00'3 5.6
2017-Oct-10 05:28N 37°24' W 009°00'3 5.5
2017-Oct-10 05:00N 37°26' W 009°00'3 5.7
2017-Oct-10 04:26N 37°29' W 009°00'4 5.5
2017-Oct-10 03:45N 37°33' W 008°60'1 5.4
2017-Oct-10 03:30N 37°34' W 008°60'3 5.7
2017-Oct-10 02:55N 37°38' W 008°59'2 5.9
2017-Oct-10 02:30N 37°40' W 008°59'3 5.4
2017-Oct-10 02:00N 37°43' W 008°59'3 5.6
2017-Oct-10 01:30N 37°46' W 008°59'3 5.8
2017-Oct-10 01:00N 37°49' W 008°59'3 5.5
2017-Oct-10 00:30N 37°51' W 008°59'3 5.5
2017-Oct-10 00:00N 37°54' W 008°59'3 5.3
2017-Oct-09 23:30N 37°57' W 008°59'2 4.9
2017-Oct-09 23:00N 37°59' W 008°58'2 4.8
2017-Oct-09 22:30N 38°02' W 008°58'2 5.0
2017-Oct-09 22:00N 38°04' W 008°59'3 5.2
2017-Oct-09 21:30N 38°07' W 008°59'3 5.2
2017-Oct-09 21:00N 38°09' W 008°59'3 5.2
2017-Oct-09 20:30N 38°12' W 008°59'3 5.4
2017-Oct-09 20:00N 38°15' W 008°58'3 5.5
2017-Oct-09 19:29N 38°17' W 008°58'3 5.7
2017-Oct-09 19:00N 38°20' W 008°59'3 5.4
2017-Oct-09 18:30N 38°23' W 008°58'3 5.6
2017-Oct-09 18:00N 38°26' W 008°58'3 5.5
2017-Oct-09 17:30N 38°28' W 008°57'2 4.5
2017-Oct-09 17:00N 38°30' W 008°55'1 3.0
2017-Oct-09 16:30N 38°31' W 008°54'  
2017-Oct-06 11:34N 38°30' W 008°55'1 8.4
2017-Oct-06 11:30N 38°29' W 008°56'4 7.5
2017-Oct-06 11:00N 38°26' W 008°59'2 3.2
2017-Oct-06 10:30N 38°25' W 008°60'1 2.8
2017-Oct-06 10:00N 38°24' W 009°00'3 5.1
2017-Oct-06 09:30N 38°22' W 009°02'1 1.7
2017-Oct-06 09:00N 38°21' W 009°03'0 0.7
2017-Oct-06 08:30N 38°21' W 009°02'0 0.5
2017-Oct-06 08:00N 38°20' W 009°02'0 0.4
2017-Oct-06 07:30N 38°20' W 009°02'0 0.3
2017-Oct-06 06:58N 38°20' W 009°02'0 0.2
2017-Oct-06 06:30N 38°20' W 009°02'0 0.1
2017-Oct-06 06:00N 38°20' W 009°02'0 0.3
2017-Oct-06 05:30N 38°20' W 009°01'0 0.3
2017-Oct-06 05:00N 38°20' W 009°01'0 0.3
2017-Oct-06 04:30N 38°21' W 009°01'0 0.2
2017-Oct-06 04:00N 38°21' W 009°01'0 0.3
2017-Oct-06 03:30N 38°21' W 009°01'0 0.3
2017-Oct-06 03:00N 38°21' W 009°01'0 0.5
2017-Oct-06 02:30N 38°21' W 009°00'0 0.3
2017-Oct-06 02:00N 38°21' W 009°00'0 0.6
2017-Oct-06 01:18N 38°20' W 009°00'0 0.6
2017-Oct-06 01:00N 38°20' W 008°60'1 0.7
2017-Oct-06 00:18N 38°20' W 008°59'0 0.4
2017-Oct-06 00:00N 38°20' W 008°59'0 0.3
2017-Oct-05 23:30N 38°20' W 008°59'0 0.1
2017-Oct-05 23:00N 38°20' W 008°59'0 0.1
2017-Oct-05 22:30N 38°20' W 008°59'0 0.1
2017-Oct-05 22:00N 38°20' W 008°59'0 0.1
2017-Oct-05 21:30N 38°20' W 008°59'0 0.3
2017-Oct-05 21:00N 38°21' W 008°59'0 0.2
2017-Oct-05 20:29N 38°21' W 008°59'0 0.4
2017-Oct-05 19:55N 38°21' W 008°59'0 0.5
2017-Oct-05 19:30N 38°21' W 008°59'1 0.6
2017-Oct-05 18:33N 38°21' W 009°00'0 2.1
2017-Oct-05 18:30N 38°21' W 009°00'1 2.3
2017-Oct-05 17:59N 38°22' W 009°01'2 2.7
2017-Oct-05 17:21N 38°23' W 009°03'1 2.4
2017-Oct-05 16:47N 38°24' W 009°04'3 2.0
2017-Oct-05 15:24N 38°25' W 009°07'0 1.0
2017-Oct-05 14:54N 38°26' W 009°08'0 0.3
2017-Oct-05 14:30N 38°26' W 009°08'1 0.4
2017-Oct-05 13:11N 38°25' W 009°08'1 1.5
2017-Oct-05 12:50N 38°26' W 009°08'0 0.1
2017-Oct-05 12:10N 38°26' W 009°07'0 0.1
2017-Oct-05 11:57N 38°26' W 009°07'0 0.3
2017-Oct-05 11:30N 38°26' W 009°08'0 0.6
2017-Oct-05 11:00N 38°25' W 009°08'0 0.1
2017-Oct-05 10:27N 38°25' W 009°08'0 0.2
2017-Oct-05 09:59N 38°25' W 009°08'0 0.0
2017-Oct-05 09:30N 38°25' W 009°08'3 4.0
2017-Oct-05 08:51N 38°24' W 009°10'2 5.0
2017-Oct-05 08:30N 38°23' W 009°12'3 5.4
2017-Oct-05 07:59N 38°25' W 009°16'3 5.2
2017-Oct-05 07:28N 38°26' W 009°18'3 5.2
2017-Oct-05 06:55N 38°28' W 009°21'2 5.1
2017-Oct-05 06:30N 38°30' W 009°23'3 5.2
2017-Oct-05 06:00N 38°32' W 009°24'3 5.3
2017-Oct-05 05:30N 38°35' W 009°26'3 5.1
2017-Oct-05 05:01N 38°37' W 009°27'3 5.1
2017-Oct-05 04:30N 38°39' W 009°29'3 5.5
2017-Oct-05 04:00N 38°41' W 009°31'3 5.0
2017-Oct-05 03:30N 38°44' W 009°32'3 5.5
2017-Oct-05 03:01N 38°46' W 009°33'3 5.6
2017-Oct-05 02:31N 38°49' W 009°33'3 5.4
2017-Oct-05 02:00N 38°52' W 009°32'3 5.4
2017-Oct-05 01:30N 38°54' W 009°32'3 5.4
2017-Oct-05 01:00N 38°57' W 009°32'3 5.3
2017-Oct-05 00:31N 38°60' W 009°32'3 5.2
2017-Oct-05 00:01N 39°02' W 009°31'3 5.4
2017-Oct-04 23:30N 39°05' W 009°30'3 5.5
2017-Oct-04 22:59N 39°08' W 009°30'  

Dump ship's entire track history